Chickasaw, Iowa
Current Conditions -  °F | °C
As of 10:15 AM on Wednesday 28 Jan 2015 (Local Time) from KCCY Reporting Station
Moderate Fog Moderate Fog  
Wind Chill: 16°   Ceiling: 300
Heat Index: 28°   Visibility: 0mi
Dew Point: 28°   Wind: 18mph
Humidity: 100%   Direction: 140°SE
Pressure: 29.99"   Gusts: NA
Location:  43.0386°N, 92.4951°W
Report Text: KCCY 281615Z AUTO 14016KT M1/4SM FZFG OVC003 M02/M02 A2999 RMK AO2
Loading
Personal Weather Stations






























Interactive Weather Map New forecast layout! Learn more

10-Day Weather Forecast

Advertisements
Track Severe Weather on mobile